createdAt,value
2022-11-01T00:00:51.980Z,7.23
2022-11-01T00:03:15.620Z,7.17
2022-11-01T00:05:40.917Z,7.19
2022-11-01T00:08:05.877Z,7.17
2022-11-01T00:10:30.078Z,7.15
2022-11-01T00:11:40.550Z,7.06
2022-11-01T00:14:05.096Z,7.14
2022-11-01T00:16:31.462Z,7.15
2022-11-01T00:19:16.203Z,7.14
2022-11-01T00:21:40.779Z,7.11
2022-11-01T00:24:06.702Z,7.12
2022-11-01T00:26:30.563Z,7.12
2022-11-01T00:28:55.719Z,7.06
2022-11-01T00:31:22.753Z,7.05
2022-11-01T00:33:48.183Z,7.05
2022-11-01T00:36:14.564Z,7.04
2022-11-01T00:38:38.704Z,6.97
2022-11-01T00:41:22.775Z,6.97
2022-11-01T00:43:47.644Z,6.99
2022-11-01T00:44:58.242Z,6.90
2022-11-01T00:47:22.732Z,7.02
2022-11-01T00:48:32.174Z,6.88
2022-11-01T00:50:57.288Z,7.00
2022-11-01T00:53:22.486Z,6.97
2022-11-01T00:55:47.412Z,6.97
2022-11-01T00:58:13.500Z,6.87
2022-11-01T01:00:38.870Z,6.88
2022-11-01T01:03:04.442Z,6.85
2022-11-01T01:05:29.788Z,6.92
2022-11-01T01:07:55.266Z,6.93
2022-11-01T01:09:05.581Z,6.83
2022-11-01T01:11:30.640Z,6.86
2022-11-01T01:12:39.544Z,6.77
2022-11-01T01:15:05.639Z,6.85
2022-11-01T01:17:33.735Z,6.80
2022-11-01T01:19:59.018Z,6.80
2022-11-01T01:22:25.027Z,6.83
2022-11-01T01:24:48.833Z,6.83
2022-11-01T01:25:58.725Z,6.74
2022-11-01T01:27:09.664Z,6.74
2022-11-01T01:28:18.898Z,6.73
2022-11-01T01:30:45.134Z,6.84
2022-11-01T01:31:54.319Z,6.72
2022-11-01T01:33:03.674Z,6.70
2022-11-01T01:35:28.511Z,6.78
2022-11-01T01:37:54.562Z,6.75
2022-11-01T01:40:18.742Z,6.72
2022-11-01T01:41:46.432Z,6.61
2022-11-01T01:42:55.716Z,6.59
2022-11-01T01:46:17.689Z,6.65
2022-11-01T01:48:54.053Z,6.61
2022-11-01T01:51:29.802Z,6.58
2022-11-01T01:53:59.309Z,6.49
2022-11-01T01:55:11.397Z,6.39
2022-11-01T01:57:55.212Z,6.49
2022-11-01T02:00:27.430Z,6.48
2022-11-01T02:02:56.189Z,6.48
2022-11-01T02:05:35.195Z,6.52
2022-11-01T02:08:01.315Z,6.54
2022-11-01T02:10:30.432Z,6.53
2022-11-01T02:12:58.195Z,6.46
2022-11-01T02:15:26.578Z,6.44
2022-11-01T02:19:57.386Z,6.36
2022-11-01T02:22:58.020Z,6.35
2022-11-01T02:24:31.135Z,6.19
2022-11-01T02:27:21.434Z,6.28
2022-11-01T02:30:22.346Z,6.28
2022-11-01T02:34:59.767Z,6.29
2022-11-01T02:39:25.290Z,6.30
2022-11-01T02:42:25.578Z,6.25
2022-11-01T02:45:03.816Z,6.22
2022-11-01T02:46:33.321Z,6.13
2022-11-01T02:49:00.262Z,6.16
2022-11-01T02:51:30.060Z,6.16
2022-11-01T02:53:55.702Z,6.17
2022-11-01T02:56:30.803Z,6.16
2022-11-01T02:57:42.603Z,6.07
2022-11-01T03:00:22.431Z,6.18
2022-11-01T03:01:40.761Z,6.11
2022-11-01T03:04:10.449Z,6.20
2022-11-01T03:06:57.240Z,6.19
2022-11-01T03:09:28.243Z,6.19
2022-11-01T03:12:31.398Z,6.18
2022-11-01T03:15:11.627Z,6.14
2022-11-01T03:19:52.474Z,6.13
2022-11-01T03:22:38.904Z,6.17
2022-11-01T03:23:51.740Z,6.04
2022-11-01T03:26:50.790Z,6.09
2022-11-01T03:29:21.252Z,6.06
2022-11-01T03:30:34.107Z,5.97
2022-11-01T03:31:46.542Z,6.02
2022-11-01T03:32:57.991Z,6.05
2022-11-01T03:35:30.349Z,6.16
2022-11-01T03:38:11.596Z,6.15
2022-11-01T03:40:44.718Z,6.11
2022-11-01T03:41:58.062Z,5.99
2022-11-01T03:43:10.844Z,5.97
2022-11-01T03:44:20.672Z,5.95
2022-11-01T03:46:49.988Z,6.09
2022-11-01T03:49:19.563Z,6.09
2022-11-01T03:51:46.862Z,6.05
2022-11-01T03:54:11.421Z,6.02
2022-11-01T03:55:21.298Z,5.91
2022-11-01T03:57:49.338Z,6.05
2022-11-01T03:58:57.917Z,5.92
2022-11-01T04:01:24.849Z,6.02
2022-11-01T04:03:49.024Z,6.06
2022-11-01T04:06:13.975Z,6.04
2022-11-01T04:07:22.710Z,5.91
2022-11-01T04:08:32.149Z,5.89
2022-11-01T04:09:41.902Z,5.90
2022-11-01T04:10:52.367Z,5.87
2022-11-01T04:12:01.664Z,5.88
2022-11-01T04:13:10.245Z,5.90
2022-11-01T04:14:37.410Z,5.90
2022-11-01T04:17:39.029Z,5.95
2022-11-01T04:20:32.949Z,5.91
2022-11-01T04:21:42.953Z,5.79
2022-11-01T04:24:08.303Z,5.88
2022-11-01T04:26:32.000Z,5.85
2022-11-01T04:27:41.733Z,5.73
2022-11-01T04:28:56.531Z,5.73
2022-11-01T04:31:32.343Z,5.85
2022-11-01T04:34:01.948Z,5.83
2022-11-01T04:35:11.693Z,5.75
2022-11-01T04:37:37.510Z,5.91
2022-11-01T04:38:52.153Z,5.80
2022-11-01T04:40:01.773Z,5.76
2022-11-01T04:42:25.853Z,5.87
2022-11-01T04:44:49.357Z,5.91
2022-11-01T04:47:14.583Z,5.96
2022-11-01T04:49:39.991Z,5.97
2022-11-01T04:52:05.525Z,5.97
2022-11-01T04:53:15.885Z,5.85
2022-11-01T04:54:25.540Z,5.84
2022-11-01T04:55:35.900Z,5.79
2022-11-01T04:57:59.970Z,5.93
2022-11-01T04:59:09.576Z,5.82
2022-11-01T05:00:19.445Z,5.86
2022-11-01T05:02:44.308Z,6.29
2022-11-01T05:05:12.013Z,6.70
2022-11-01T05:06:21.804Z,6.73
2022-11-01T05:07:31.433Z,6.91
2022-11-01T05:09:56.005Z,7.46
2022-11-01T05:11:06.348Z,7.63
2022-11-01T05:13:31.212Z,8.31
2022-11-01T05:16:17.917Z,8.84
2022-11-01T05:17:06.680Z,8.98
2022-11-01T05:18:15.900Z,9.20
2022-11-01T05:20:39.634Z,9.67
2022-11-01T05:21:49.897Z,9.58
2022-11-01T05:23:04.146Z,9.52
2022-11-01T05:25:32.686Z,9.62
2022-11-01T05:29:33.041Z,10.14
2022-11-01T05:30:35.534Z,10.22
2022-11-01T05:33:00.760Z,10.79
2022-11-01T05:34:09.399Z,10.90
2022-11-01T05:36:33.070Z,11.41
2022-11-01T05:38:59.303Z,11.70
2022-11-01T05:41:26.346Z,11.98
2022-11-01T05:43:54.672Z,11.73
2022-11-01T05:46:20.621Z,11.34
2022-11-01T05:48:46.130Z,10.87
2022-11-01T05:49:55.352Z,10.60
2022-11-01T05:52:21.030Z,10.40
2022-11-01T05:53:29.726Z,10.23
2022-11-01T05:54:39.511Z,10.12
2022-11-01T05:55:48.714Z,10.02
2022-11-01T05:58:12.674Z,9.92
2022-11-01T06:00:37.509Z,9.70
2022-11-01T06:01:46.799Z,9.49
2022-11-01T06:04:14.654Z,9.41
2022-11-01T06:06:38.413Z,9.23
2022-11-01T06:07:48.095Z,9.08
2022-11-01T06:10:13.467Z,8.95
2022-11-01T06:11:22.062Z,8.79
2022-11-01T06:12:33.474Z,8.70
2022-11-01T06:13:42.324Z,8.68
2022-11-01T06:14:52.182Z,8.63
2022-11-01T06:16:03.946Z,8.62
2022-11-01T06:17:13.507Z,8.57
2022-11-01T06:18:22.096Z,8.57
2022-11-01T06:20:59.090Z,8.50
2022-11-01T06:22:08.657Z,8.44
2022-11-01T06:23:18.086Z,8.42
2022-11-01T06:25:42.639Z,8.53
2022-11-01T06:28:07.571Z,8.44
2022-11-01T06:29:18.125Z,8.32
2022-11-01T06:31:42.729Z,8.47
2022-11-01T06:34:07.461Z,8.47
2022-11-01T06:36:32.796Z,8.48
2022-11-01T06:37:41.816Z,8.40
2022-11-01T06:38:52.451Z,8.37
2022-11-01T11:21:09.340Z,10.81
2022-11-01T11:22:21.954Z,10.81
2022-11-01T11:23:44.356Z,10.91
2022-11-01T11:26:16.361Z,11.19
2022-11-01T11:28:49.519Z,11.32
2022-11-01T11:31:33.220Z,11.42
2022-11-01T11:32:49.993Z,11.37
2022-11-01T11:35:21.221Z,11.59
2022-11-01T11:39:27.783Z,11.74
2022-11-01T11:42:20.169Z,11.82
2022-11-01T11:44:55.448Z,11.93
2022-11-01T11:46:20.104Z,11.86
2022-11-01T11:49:03.572Z,12.03
2022-11-01T11:51:42.074Z,12.09
2022-11-01T11:54:32.055Z,12.19
2022-11-01T11:57:20.643Z,12.24
2022-11-01T12:00:04.502Z,12.30
2022-11-01T12:01:25.995Z,12.21
2022-11-01T12:02:42.034Z,12.23
2022-11-01T12:03:58.523Z,12.24
2022-11-01T12:06:47.631Z,12.40
2022-11-01T12:07:58.580Z,12.31
2022-11-01T12:10:59.217Z,12.41
2022-11-01T12:13:41.839Z,12.40
2022-11-01T12:19:04.199Z,12.35
2022-11-01T12:21:43.645Z,12.38
2022-11-01T12:23:30.997Z,12.29
2022-11-01T12:26:05.670Z,12.41
2022-11-01T12:28:43.075Z,12.41
2022-11-01T12:29:56.581Z,12.31
2022-11-01T12:32:37.764Z,12.42
2022-11-01T12:35:34.878Z,12.46
2022-11-01T12:38:36.016Z,12.50
2022-11-01T12:41:44.950Z,12.50
2022-11-01T12:43:19.701Z,12.39
2022-11-01T12:46:11.697Z,12.50
2022-11-01T12:48:52.053Z,12.52
2022-11-01T12:50:17.292Z,12.38
2022-11-01T12:53:12.144Z,12.43
2022-11-01T12:55:42.488Z,12.44
2022-11-01T12:56:55.850Z,12.35
2022-11-01T12:59:31.254Z,12.43
2022-11-01T13:02:12.366Z,12.44
2022-11-01T13:03:44.914Z,12.39
2022-11-01T13:08:14.925Z,12.52
2022-11-01T13:09:30.391Z,12.42
2022-11-01T13:12:24.586Z,12.54
2022-11-01T13:13:40.685Z,12.43
2022-11-01T13:16:32.298Z,12.57
2022-11-01T13:20:59.971Z,12.59
2022-11-01T13:22:10.226Z,12.50
2022-11-01T13:23:23.642Z,12.47
2022-11-01T13:24:46.382Z,12.47
2022-11-01T13:27:57.749Z,12.52
2022-11-01T13:30:36.460Z,12.51
2022-11-01T13:32:11.817Z,12.40
2022-11-01T13:34:55.966Z,12.50
2022-11-01T13:37:57.479Z,12.48
2022-11-01T13:40:56.612Z,12.45
2022-11-01T13:43:43.840Z,12.43
2022-11-01T13:46:27.676Z,12.45
2022-11-01T13:49:11.771Z,12.44
2022-11-01T13:50:31.595Z,12.35
2022-11-01T13:53:22.414Z,12.49
2022-11-01T13:56:08.964Z,12.43
2022-11-01T13:58:36.211Z,12.35
2022-11-01T14:01:36.373Z,12.36
2022-11-01T14:04:19.755Z,12.38
2022-11-01T14:05:38.933Z,12.27
2022-11-01T14:07:13.278Z,12.31
2022-11-01T14:09:49.931Z,12.46
2022-11-01T14:10:59.986Z,12.36
2022-11-01T14:12:13.328Z,12.37
2022-11-01T14:13:39.210Z,12.38
2022-11-01T14:16:19.332Z,12.45
2022-11-01T14:17:36.499Z,12.35
2022-11-01T14:20:29.141Z,12.38
2022-11-01T14:24:21.852Z,12.33
2022-11-01T14:26:51.165Z,12.34
2022-11-01T14:28:21.799Z,12.22
2022-11-01T14:30:49.989Z,12.30
2022-11-01T14:34:41.910Z,12.31
2022-11-01T14:37:14.208Z,12.33
2022-11-01T14:40:03.639Z,12.36
2022-11-01T19:52:12.683Z,9.14
2022-11-01T19:54:54.048Z,9.32
2022-11-01T19:57:37.482Z,9.44
2022-11-01T20:00:21.935Z,9.52
2022-11-01T20:03:06.101Z,9.60
2022-11-01T20:05:44.913Z,9.65
2022-11-01T20:07:02.803Z,9.55
2022-11-01T20:09:41.369Z,9.69
2022-11-01T20:12:05.879Z,9.70
2022-11-01T20:14:29.605Z,9.70
2022-11-01T20:16:53.797Z,9.70
2022-11-01T20:19:20.044Z,9.72
2022-11-01T20:21:45.151Z,9.76
2022-11-01T20:24:09.757Z,9.81
2022-11-01T20:26:36.900Z,9.86
2022-11-01T20:29:01.806Z,9.82
2022-11-01T20:30:12.120Z,9.69
2022-11-01T20:31:21.991Z,9.68
2022-11-01T20:33:47.545Z,9.77
2022-11-01T20:36:13.397Z,9.77
2022-11-01T20:38:37.477Z,9.75
2022-11-01T20:41:01.250Z,9.61
2022-11-01T20:42:11.433Z,9.46
2022-11-01T20:44:36.912Z,9.52
2022-11-01T20:47:02.023Z,9.55
2022-11-01T20:49:26.909Z,9.54
2022-11-01T20:50:36.161Z,9.50
2022-11-01T20:53:01.492Z,9.68
2022-11-01T20:54:17.638Z,9.61
2022-11-01T20:55:24.185Z,9.65
2022-11-01T20:57:48.127Z,9.82
2022-11-01T21:00:18.360Z,9.87
2022-11-01T21:02:42.768Z,9.90
2022-11-01T21:03:53.897Z,9.78
2022-11-01T21:06:36.177Z,9.95
2022-11-01T21:07:47.958Z,9.86
2022-11-01T21:11:44.527Z,9.98
2022-11-01T21:12:53.639Z,9.89
2022-11-01T21:16:55.611Z,10.06
2022-11-01T21:19:25.918Z,10.08
2022-11-01T21:22:18.992Z,10.09
2022-11-01T21:24:51.630Z,10.09
2022-11-01T21:30:04.548Z,10.00
2022-11-01T21:32:38.678Z,9.95
2022-11-01T21:33:57.444Z,9.82
2022-11-01T21:36:50.046Z,9.86
2022-11-01T21:38:00.574Z,9.75
2022-11-01T21:39:11.623Z,9.69
2022-11-01T21:42:04.744Z,9.71
2022-11-01T21:44:45.501Z,9.69
2022-11-01T21:47:16.474Z,9.73
2022-11-01T21:48:31.178Z,9.65
2022-11-01T21:49:41.730Z,9.66
2022-11-01T21:52:07.800Z,9.82
2022-11-01T21:53:17.625Z,9.75
2022-11-01T21:55:45.210Z,9.93
2022-11-01T21:58:11.028Z,10.02
2022-11-01T21:59:20.454Z,9.96
2022-11-01T22:01:46.190Z,10.13
2022-11-01T22:02:56.045Z,10.05
2022-11-01T22:05:20.225Z,10.17
2022-11-01T22:06:29.549Z,10.02
2022-11-01T22:08:55.719Z,9.90
2022-11-01T22:11:23.579Z,9.93
2022-11-01T22:13:47.719Z,10.00
2022-11-01T22:16:11.410Z,10.05
2022-11-01T22:18:35.728Z,10.00
2022-11-01T22:21:01.588Z,9.94
2022-11-01T22:22:10.619Z,9.79
2022-11-01T22:24:35.590Z,9.83
2022-11-01T22:25:44.178Z,9.70
2022-11-01T22:26:53.428Z,9.67
2022-11-01T22:29:18.401Z,9.70
2022-11-01T22:31:42.340Z,9.67
2022-11-01T22:34:07.096Z,9.63
2022-11-01T22:35:16.928Z,9.50
2022-11-01T22:36:29.257Z,9.47
2022-11-01T22:39:01.495Z,9.54
2022-11-01T22:41:34.087Z,9.49
2022-11-01T22:42:44.111Z,9.38
2022-11-01T22:43:56.677Z,9.36
2022-11-01T22:46:52.327Z,9.47
2022-11-01T22:49:27.016Z,9.46
2022-11-01T22:50:36.185Z,9.34
2022-11-01T22:54:39.524Z,9.34
2022-11-01T22:57:25.074Z,9.29
2022-11-01T22:59:57.694Z,9.24
2022-11-01T23:02:38.882Z,9.23
2022-11-01T23:05:16.344Z,9.21
2022-11-01T23:06:34.385Z,9.10
2022-11-01T23:07:49.817Z,9.12
2022-11-01T23:10:34.929Z,9.15
2022-11-01T23:13:43.595Z,9.12
2022-11-01T23:14:52.670Z,8.99
2022-11-01T23:16:17.594Z,8.98
2022-11-01T23:18:45.874Z,9.02
2022-11-01T23:20:00.256Z,8.92
2022-11-01T23:22:28.185Z,9.04
2022-11-01T23:24:58.957Z,9.06
2022-11-01T23:26:09.322Z,8.98
2022-11-01T23:27:24.090Z,8.99
2022-11-01T23:28:37.298Z,8.98
2022-11-01T23:31:05.978Z,9.12
2022-11-01T23:32:16.164Z,9.01
2022-11-01T23:34:46.892Z,9.12
2022-11-01T23:37:33.663Z,9.13
2022-11-01T23:40:01.147Z,9.17
2022-11-01T23:42:35.918Z,9.20
2022-11-01T23:45:00.235Z,9.24
2022-11-01T23:46:15.129Z,9.13
2022-11-01T23:48:52.605Z,9.20
2022-11-01T23:50:05.456Z,9.11
2022-11-01T23:51:21.065Z,9.08
2022-11-01T23:53:55.786Z,9.14
2022-11-01T23:56:25.218Z,9.08
2022-11-01T23:59:01.564Z,9.02
